Weather at Aspen-Pitkin Co/Sardy Field

Public forecast

Using degrees Fahrenheit for public forecast. Weather courtesy of forecast.io.

Current aviation weather report (METAR) for Aspen-Pitkin Co/Sardy Field

Report is more than 6 hours old.

2022/11/14 15:25 (retrieved 2 years ago)

KASE 141525Z 04005KT 1 1/2SM -SN BR BKN013 OVC016 M05/M07 A3001 RMK AO2 P0000 T10501072

Aviation forecast (TAF) for Aspen-Pitkin Co/Sardy Field

Forecast is more than 12 hours old.

2023/02/22 18:04 (retrieved 1 year ago)

TAF KASE 221802Z 2218/2318 35007KT 1/2SM SN FZFG BKN009 OVC012 WS020/20045KT TEMPO 2218/2220 VRB20G30KT 2SM -SHSN BR BKN021 OVC035 FM222000 20022G36KT 3SM -SHSN BLSN BKN028 FM222100 22021G38KT 1 1/2SM -SHSN BLSN OVC025 FM230200 28019G34KT 2SM -SHSN BLSN BKN035 FM230800 27011G23KT P6SM VCSH BKN050